sensor_id;sensor_type;location;lat;lon;timestamp;pressure;altitude;pressure_sealevel;temperature;humidity
41573;BME280;27286;47.870;19.006;2024-02-28T00:00:00;99244.53;;;7.48;100.00
41573;BME280;27286;47.870;19.006;2024-02-28T00:02:25;99244.22;;;7.59;100.00
41573;BME280;27286;47.870;19.006;2024-02-28T00:04:51;99245.69;;;7.92;100.00
41573;BME280;27286;47.870;19.006;2024-02-28T00:07:16;99248.56;;;7.58;100.00
41573;BME280;27286;47.870;19.006;2024-02-28T00:09:43;99240.00;;;7.28;100.00
41573;BME280;27286;47.870;19.006;2024-02-28T00:12:09;99248.41;;;7.35;100.00
41573;BME280;27286;47.870;19.006;2024-02-28T00:14:35;99246.25;;;7.75;100.00
41573;BME280;27286;47.870;19.006;2024-02-28T00:17:00;99234.09;;;7.51;100.00
41573;BME280;27286;47.870;19.006;2024-02-28T00:19:25;99242.06;;;7.71;100.00
41573;BME280;27286;47.870;19.006;2024-02-28T00:21:51;99241.06;;;7.75;100.00
41573;BME280;27286;47.870;19.006;2024-02-28T00:24:16;99242.22;;;7.40;100.00
41573;BME280;27286;47.870;19.006;2024-02-28T00:26:43;99231.56;;;7.21;100.00
41573;BME280;27286;47.870;19.006;2024-02-28T00:29:09;99243.25;;;7.05;100.00
41573;BME280;27286;47.870;19.006;2024-02-28T00:31:34;99241.91;;;6.93;100.00
41573;BME280;27286;47.870;19.006;2024-02-28T00:34:00;99237.72;;;6.89;100.00
41573;BME280;27286;47.870;19.006;2024-02-28T00:36:25;99247.47;;;7.09;100.00
41573;BME280;27286;47.870;19.006;2024-02-28T00:38:51;99241.72;;;7.00;100.00
41573;BME280;27286;47.870;19.006;2024-02-28T00:41:16;99236.38;;;6.76;100.00
41573;BME280;27286;47.870;19.006;2024-02-28T00:43:42;99245.59;;;6.85;100.00
41573;BME280;27286;47.870;19.006;2024-02-28T00:46:07;99238.47;;;7.21;100.00
41573;BME280;27286;47.870;19.006;2024-02-28T00:48:40;99241.91;;;7.21;100.00
41573;BME280;27286;47.870;19.006;2024-02-28T00:51:05;99243.16;;;7.10;100.00
41573;BME280;27286;47.870;19.006;2024-02-28T00:53:31;99241.75;;;6.98;100.00
41573;BME280;27286;47.870;19.006;2024-02-28T00:55:56;99243.25;;;7.05;100.00
41573;BME280;27286;47.870;19.006;2024-02-28T00:58:22;99236.59;;;6.98;100.00
41573;BME280;27286;47.870;19.006;2024-02-28T01:00:48;99246.25;;;6.93;100.00
41573;BME280;27286;47.870;19.006;2024-02-28T01:03:13;99242.00;;;6.90;100.00
41573;BME280;27286;47.870;19.006;2024-02-28T01:05:41;99245.78;;;7.08;100.00
41573;BME280;27286;47.870;19.006;2024-02-28T01:08:06;99252.50;;;7.14;100.00
41573;BME280;27286;47.870;19.006;2024-02-28T01:10:33;99249.06;;;7.13;100.00
41573;BME280;27286;47.870;19.006;2024-02-28T01:12:58;99251.13;;;7.02;100.00
41573;BME280;27286;47.870;19.006;2024-02-28T01:15:24;99245.06;;;7.03;100.00
41573;BME280;27286;47.870;19.006;2024-02-28T01:17:49;99248.59;;;7.01;100.00
41573;BME280;27286;47.870;19.006;2024-02-28T01:20:15;99239.47;;;6.89;100.00
41573;BME280;27286;47.870;19.006;2024-02-28T01:22:40;99252.22;;;6.95;100.00
41573;BME280;27286;47.870;19.006;2024-02-28T01:25:06;99256.50;;;6.96;100.00
41573;BME280;27286;47.870;19.006;2024-02-28T01:27:32;99254.69;;;7.54;100.00
41573;BME280;27286;47.870;19.006;2024-02-28T01:29:57;99254.22;;;7.96;100.00
41573;BME280;27286;47.870;19.006;2024-02-28T01:32:23;99252.97;;;8.07;100.00
41573;BME280;27286;47.870;19.006;2024-02-28T01:34:48;99258.09;;;8.09;100.00
41573;BME280;27286;47.870;19.006;2024-02-28T01:37:14;99248.09;;;7.98;100.00
41573;BME280;27286;47.870;19.006;2024-02-28T01:39:40;99259.75;;;7.85;100.00
41573;BME280;27286;47.870;19.006;2024-02-28T01:42:05;99262.09;;;7.93;100.00
41573;BME280;27286;47.870;19.006;2024-02-28T01:44:30;99268.16;;;7.65;100.00
41573;BME280;27286;47.870;19.006;2024-02-28T01:46:56;99269.41;;;7.26;100.00
41573;BME280;27286;47.870;19.006;2024-02-28T01:49:23;99264.69;;;7.10;100.00
41573;BME280;27286;47.870;19.006;2024-02-28T01:51:50;99264.81;;;7.07;100.00
41573;BME280;27286;47.870;19.006;2024-02-28T01:54:20;99260.59;;;7.03;100.00
41573;BME280;27286;47.870;19.006;2024-02-28T01:56:46;99266.41;;;7.11;100.00
41573;BME280;27286;47.870;19.006;2024-02-28T01:59:11;99259.56;;;7.09;100.00
41573;BME280;27286;47.870;19.006;2024-02-28T02:01:37;99268.97;;;7.11;100.00
41573;BME280;27286;47.870;19.006;2024-02-28T02:04:03;99271.53;;;7.13;100.00
41573;BME280;27286;47.870;19.006;2024-02-28T02:06:30;99268.28;;;7.05;100.00
41573;BME280;27286;47.870;19.006;2024-02-28T02:08:55;99268.53;;;6.97;100.00
41573;BME280;27286;47.870;19.006;2024-02-28T02:11:21;99261.47;;;7.02;100.00
41573;BME280;27286;47.870;19.006;2024-02-28T02:13:51;99259.66;;;7.06;100.00
41573;BME280;27286;47.870;19.006;2024-02-28T02:16:18;99266.44;;;7.10;100.00
41573;BME280;27286;47.870;19.006;2024-02-28T02:18:44;99273.25;;;7.12;100.00
41573;BME280;27286;47.870;19.006;2024-02-28T02:21:11;99270.13;;;7.01;100.00
41573;BME280;27286;47.870;19.006;2024-02-28T02:23:37;99273.66;;;6.99;100.00
41573;BME280;27286;47.870;19.006;2024-02-28T02:26:06;99273.53;;;7.03;100.00
41573;BME280;27286;47.870;19.006;2024-02-28T02:28:32;99273.66;;;6.99;100.00
41573;BME280;27286;47.870;19.006;2024-02-28T02:30:57;99280.50;;;7.01;100.00
41573;BME280;27286;47.870;19.006;2024-02-28T02:33:23;99288.22;;;7.03;100.00
41573;BME280;27286;47.870;19.006;2024-02-28T02:35:48;99280.31;;;7.07;100.00
41573;BME280;27286;47.870;19.006;2024-02-28T02:38:13;99282.06;;;7.07;100.00
41573;BME280;27286;47.870;19.006;2024-02-28T02:40:39;99284.69;;;7.05;100.00
41573;BME280;27286;47.870;19.006;2024-02-28T02:43:05;99282.53;;;7.19;100.00
41573;BME280;27286;47.870;19.006;2024-02-28T02:45:31;99279.16;;;7.17;100.00
41573;BME280;27286;47.870;19.006;2024-02-28T02:47:56;99279.34;;;7.11;100.00
41573;BME280;27286;47.870;19.006;2024-02-28T02:50:21;99290.69;;;7.07;100.00
41573;BME280;27286;47.870;19.006;2024-02-28T02:52:47;99305.75;;;6.93;100.00
41573;BME280;27286;47.870;19.006;2024-02-28T02:55:12;99308.59;;;6.84;100.00
41573;BME280;27286;47.870;19.006;2024-02-28T02:57:39;99300.81;;;6.84;100.00
41573;BME280;27286;47.870;19.006;2024-02-28T03:00:08;99311.19;;;6.84;100.00
41573;BME280;27286;47.870;19.006;2024-02-28T03:02:34;99304.53;;;6.75;100.00
41573;BME280;27286;47.870;19.006;2024-02-28T03:04:59;99308.81;;;6.76;100.00
41573;BME280;27286;47.870;19.006;2024-02-28T03:07:25;99304.53;;;6.75;100.00
41573;BME280;27286;47.870;19.006;2024-02-28T03:09:50;99304.34;;;6.81;100.00
41573;BME280;27286;47.870;19.006;2024-02-28T03:12:16;99304.25;;;6.84;100.00
41573;BME280;27286;47.870;19.006;2024-02-28T03:14:42;99313.44;;;6.96;100.00
41573;BME280;27286;47.870;19.006;2024-02-28T03:17:07;99318.69;;;6.93;100.00
41573;BME280;27286;47.870;19.006;2024-02-28T03:19:32;99308.44;;;6.90;100.00
41573;BME280;27286;47.870;19.006;2024-02-28T03:21:59;99300.13;;;6.79;100.00
41573;BME280;27286;47.870;19.006;2024-02-28T03:24:24;99307.06;;;6.77;100.00
41573;BME280;27286;47.870;19.006;2024-02-28T03:26:50;99303.69;;;6.75;100.00
41573;BME280;27286;47.870;19.006;2024-02-28T03:29:15;99312.25;;;6.77;100.00
41573;BME280;27286;47.870;19.006;2024-02-28T03:31:40;99317.63;;;7.00;100.00
41573;BME280;27286;47.870;19.006;2024-02-28T03:34:06;99323.13;;;6.89;100.00
41573;BME280;27286;47.870;19.006;2024-02-28T03:36:31;99317.25;;;6.83;100.00
41573;BME280;27286;47.870;19.006;2024-02-28T03:38:58;99320.81;;;6.79;100.00
41573;BME280;27286;47.870;19.006;2024-02-28T03:41:23;99327.97;;;6.69;100.00
41573;BME280;27286;47.870;19.006;2024-02-28T03:43:48;99314.91;;;6.43;100.00
41573;BME280;27286;47.870;19.006;2024-02-28T03:46:14;99330.06;;;6.56;100.00
41573;BME280;27286;47.870;19.006;2024-02-28T03:48:40;99327.25;;;6.64;100.00
41573;BME280;27286;47.870;19.006;2024-02-28T03:51:05;99330.13;;;6.53;100.00
41573;BME280;27286;47.870;19.006;2024-02-28T03:53:31;99326.72;;;6.51;100.00
41573;BME280;27286;47.870;19.006;2024-02-28T03:55:56;99335.19;;;6.58;100.00
41573;BME280;27286;47.870;19.006;2024-02-28T03:58:21;99328.38;;;6.55;100.00
41573;BME280;27286;47.870;19.006;2024-02-28T04:00:47;99330.78;;;6.61;100.00
41573;BME280;27286;47.870;19.006;2024-02-28T04:03:13;99326.31;;;6.67;100.00
41573;BME280;27286;47.870;19.006;2024-02-28T04:05:39;99337.38;;;6.72;100.00
41573;BME280;27286;47.870;19.006;2024-02-28T04:08:05;99336.47;;;6.74;100.00
41573;BME280;27286;47.870;19.006;2024-02-28T04:10:30;99341.69;;;6.73;100.00
41573;BME280;27286;47.870;19.006;2024-02-28T04:12:56;99339.13;;;6.71;100.00
41573;BME280;27286;47.870;19.006;2024-02-28T04:15:22;99337.38;;;7.03;100.00
41573;BME280;27286;47.870;19.006;2024-02-28T04:17:47;99341.47;;;7.11;100.00
41573;BME280;27286;47.870;19.006;2024-02-28T04:20:13;99343.63;;;7.27;100.00
41573;BME280;27286;47.870;19.006;2024-02-28T04:22:38;99344.19;;;7.64;100.00
41573;BME280;27286;47.870;19.006;2024-02-28T04:25:08;99337.31;;;7.35;100.00
41573;BME280;27286;47.870;19.006;2024-02-28T04:27:37;99344.06;;;7.41;100.00
41573;BME280;27286;47.870;19.006;2024-02-28T04:30:06;99346.06;;;7.31;100.00
41573;BME280;27286;47.870;19.006;2024-02-28T04:32:32;99344.97;;;7.38;100.00
41573;BME280;27286;47.870;19.006;2024-02-28T04:34:58;99350.28;;;7.04;100.00
41573;BME280;27286;47.870;19.006;2024-02-28T04:37:23;99345.94;;;6.75;100.00
41573;BME280;27286;47.870;19.006;2024-02-28T04:39:49;99348.22;;;6.86;100.00
41573;BME280;27286;47.870;19.006;2024-02-28T04:42:15;99340.75;;;7.06;100.00
41573;BME280;27286;47.870;19.006;2024-02-28T04:44:41;99349.22;;;7.11;100.00
41573;BME280;27286;47.870;19.006;2024-02-28T04:47:07;99352.88;;;7.04;100.00
41573;BME280;27286;47.870;19.006;2024-02-28T04:49:32;99347.88;;;6.98;100.00
41573;BME280;27286;47.870;19.006;2024-02-28T04:51:58;99343.41;;;7.03;100.00
41573;BME280;27286;47.870;19.006;2024-02-28T04:54:23;99344.97;;;7.40;100.00
41573;BME280;27286;47.870;19.006;2024-02-28T04:56:49;99342.31;;;7.69;100.00
41573;BME280;27286;47.870;19.006;2024-02-28T04:59:16;99338.06;;;7.95;100.00
41573;BME280;27286;47.870;19.006;2024-02-28T05:01:42;99334.84;;;7.87;100.00
41573;BME280;27286;47.870;19.006;2024-02-28T05:04:09;99348.28;;;7.71;100.00
41573;BME280;27286;47.870;19.006;2024-02-28T05:06:35;99357.63;;;7.49;100.00
41573;BME280;27286;47.870;19.006;2024-02-28T05:09:00;99356.81;;;7.47;100.00
41573;BME280;27286;47.870;19.006;2024-02-28T05:11:26;99322.47;;;7.68;100.00
41573;BME280;27286;47.870;19.006;2024-02-28T05:13:51;99354.47;;;7.95;100.00
41573;BME280;27286;47.870;19.006;2024-02-28T05:16:17;99358.41;;;8.07;100.00
41573;BME280;27286;47.870;19.006;2024-02-28T05:18:46;99353.66;;;8.20;100.00
41573;BME280;27286;47.870;19.006;2024-02-28T05:21:12;99352.53;;;8.28;100.00
41573;BME280;27286;47.870;19.006;2024-02-28T05:23:38;99356.50;;;8.12;100.00
41573;BME280;27286;47.870;19.006;2024-02-28T05:26:03;99361.94;;;8.04;100.00
41573;BME280;27286;47.870;19.006;2024-02-28T05:28:30;99363.75;;;7.74;100.00
41573;BME280;27286;47.870;19.006;2024-02-28T05:30:56;99376.09;;;7.66;100.00
41573;BME280;27286;47.870;19.006;2024-02-28T05:33:21;99371.59;;;7.71;100.00
41573;BME280;27286;47.870;19.006;2024-02-28T05:35:47;99374.09;;;7.76;100.00
41573;BME280;27286;47.870;19.006;2024-02-28T05:38:12;99377.44;;;8.06;100.00
41573;BME280;27286;47.870;19.006;2024-02-28T05:40:38;99382.66;;;8.04;100.00
41573;BME280;27286;47.870;19.006;2024-02-28T05:43:03;99396.16;;;8.15;100.00
41573;BME280;27286;47.870;19.006;2024-02-28T05:45:29;99398.88;;;8.39;100.00
41573;BME280;27286;47.870;19.006;2024-02-28T05:47:55;99392.72;;;8.15;100.00
41573;BME280;27286;47.870;19.006;2024-02-28T05:50:20;99394.88;;;8.01;100.00
41573;BME280;27286;47.870;19.006;2024-02-28T05:52:45;99399.06;;;8.33;100.00
41573;BME280;27286;47.870;19.006;2024-02-28T05:55:11;99400.78;;;8.32;100.00
41573;BME280;27286;47.870;19.006;2024-02-28T05:57:37;99407.31;;;8.46;100.00
41573;BME280;27286;47.870;19.006;2024-02-28T06:00:03;99410.94;;;8.66;98.54
41573;BME280;27286;47.870;19.006;2024-02-28T06:02:36;99413.13;;;8.52;99.96
41573;BME280;27286;47.870;19.006;2024-02-28T06:05:02;99410.09;;;8.66;99.59
41573;BME280;27286;47.870;19.006;2024-02-28T06:07:27;99410.59;;;8.51;100.00
41573;BME280;27286;47.870;19.006;2024-02-28T06:09:52;99418.69;;;8.41;100.00
41573;BME280;27286;47.870;19.006;2024-02-28T06:12:18;99421.72;;;8.54;100.00
41573;BME280;27286;47.870;19.006;2024-02-28T06:14:43;99424.44;;;9.01;95.69
41573;BME280;27286;47.870;19.006;2024-02-28T06:17:09;99424.66;;;9.20;93.56
41573;BME280;27286;47.870;19.006;2024-02-28T06:19:34;99425.97;;;9.31;92.26
41573;BME280;27286;47.870;19.006;2024-02-28T06:21:59;99427.88;;;9.26;92.43
41573;BME280;27286;47.870;19.006;2024-02-28T06:24:25;99434.91;;;9.48;90.84
41573;BME280;27286;47.870;19.006;2024-02-28T06:26:50;99431.22;;;9.30;90.14
41573;BME280;27286;47.870;19.006;2024-02-28T06:29:16;99444.53;;;9.21;91.19
41573;BME280;27286;47.870;19.006;2024-02-28T06:31:41;99444.09;;;9.33;91.21
41573;BME280;27286;47.870;19.006;2024-02-28T06:34:06;99437.00;;;9.61;89.45
41573;BME280;27286;47.870;19.006;2024-02-28T06:36:32;99433.81;;;9.77;88.48
41573;BME280;27286;47.870;19.006;2024-02-28T06:38:58;99432.72;;;9.82;87.34
41573;BME280;27286;47.870;19.006;2024-02-28T06:41:23;99443.56;;;9.93;86.84
41573;BME280;27286;47.870;19.006;2024-02-28T06:43:48;99448.91;;;9.67;86.67
41573;BME280;27286;47.870;19.006;2024-02-28T06:46:14;99455.28;;;9.82;86.91
41573;BME280;27286;47.870;19.006;2024-02-28T06:48:39;99409.06;;;9.67;86.88
41573;BME280;27286;47.870;19.006;2024-02-28T06:51:05;99450.34;;;9.98;86.35
41573;BME280;27286;47.870;19.006;2024-02-28T06:53:30;99449.13;;;9.84;85.51
41573;BME280;27286;47.870;19.006;2024-02-28T06:55:56;99438.25;;;9.97;88.27
41573;BME280;27286;47.870;19.006;2024-02-28T06:58:21;99450.41;;;9.96;88.03
41573;BME280;27286;47.870;19.006;2024-02-28T07:00:50;99440.59;;;9.81;87.42
41573;BME280;27286;47.870;19.006;2024-02-28T07:03:15;99452.34;;;9.91;87.99
41573;BME280;27286;47.870;19.006;2024-02-28T07:05:41;99467.19;;;9.87;87.77
41573;BME280;27286;47.870;19.006;2024-02-28T07:08:06;99466.22;;;9.90;88.13
41573;BME280;27286;47.870;19.006;2024-02-28T07:10:31;99463.81;;;10.07;86.46
41573;BME280;27286;47.870;19.006;2024-02-28T07:12:57;99470.91;;;10.27;83.36
41573;BME280;27286;47.870;19.006;2024-02-28T07:15:22;99470.59;;;10.35;84.56
41573;BME280;27286;47.870;19.006;2024-02-28T07:17:48;99473.56;;;10.47;83.33
41573;BME280;27286;47.870;19.006;2024-02-28T07:20:14;99468.72;;;10.60;83.61
41573;BME280;27286;47.870;19.006;2024-02-28T07:22:39;99463.91;;;10.71;82.94
41573;BME280;27286;47.870;19.006;2024-02-28T07:25:05;99470.44;;;10.81;83.24
41573;BME280;27286;47.870;19.006;2024-02-28T07:27:33;99476.50;;;11.02;80.69
41573;BME280;27286;47.870;19.006;2024-02-28T07:29:58;99484.50;;;11.18;80.17
41573;BME280;27286;47.870;19.006;2024-02-28T07:32:23;99479.13;;;11.41;78.19
41573;BME280;27286;47.870;19.006;2024-02-28T07:34:49;99483.91;;;11.71;77.83
41573;BME280;27286;47.870;19.006;2024-02-28T07:37:14;99471.97;;;12.04;76.85
41573;BME280;27286;47.870;19.006;2024-02-28T07:39:40;99476.66;;;12.34;73.60
41573;BME280;27286;47.870;19.006;2024-02-28T07:42:05;99474.03;;;12.34;73.29
41573;BME280;27286;47.870;19.006;2024-02-28T07:44:30;99473.69;;;12.59;71.69
41573;BME280;27286;47.870;19.006;2024-02-28T07:46:57;99475.44;;;13.12;70.45
41573;BME280;27286;47.870;19.006;2024-02-28T07:49:23;99480.47;;;13.82;68.16
41573;BME280;27286;47.870;19.006;2024-02-28T07:51:50;99476.84;;;14.01;68.04
41573;BME280;27286;47.870;19.006;2024-02-28T07:54:15;99487.72;;;14.40;67.27
41573;BME280;27286;47.870;19.006;2024-02-28T07:56:40;99482.22;;;15.21;63.38
41573;BME280;27286;47.870;19.006;2024-02-28T07:59:06;99489.78;;;15.98;60.41
41573;BME280;27286;47.870;19.006;2024-02-28T08:01:31;99483.63;;;17.20;55.43
41573;BME280;27286;47.870;19.006;2024-02-28T08:03:57;99472.88;;;18.83;48.37
41573;BME280;27286;47.870;19.006;2024-02-28T08:06:22;99479.16;;;20.07;45.29
41573;BME280;27286;47.870;19.006;2024-02-28T08:08:47;99471.09;;;20.74;43.32
41573;BME280;27286;47.870;19.006;2024-02-28T08:11:13;99472.72;;;22.10;41.26
41573;BME280;27286;47.870;19.006;2024-02-28T08:13:39;99473.34;;;23.29;37.48
41573;BME280;27286;47.870;19.006;2024-02-28T08:16:04;99474.63;;;23.16;37.34
41573;BME280;27286;47.870;19.006;2024-02-28T08:18:30;99470.28;;;22.66;36.50
41573;BME280;27286;47.870;19.006;2024-02-28T08:20:55;99475.75;;;23.79;35.23
41573;BME280;27286;47.870;19.006;2024-02-28T08:23:23;99481.97;;;23.60;34.87
41573;BME280;27286;47.870;19.006;2024-02-28T08:25:49;99476.84;;;24.41;34.72
41573;BME280;27286;47.870;19.006;2024-02-28T08:28:14;99474.88;;;24.79;34.03
41573;BME280;27286;47.870;19.006;2024-02-28T08:30:39;99463.78;;;25.01;33.40
41573;BME280;27286;47.870;19.006;2024-02-28T08:33:08;99484.03;;;24.04;33.91
41573;BME280;27286;47.870;19.006;2024-02-28T08:35:35;99487.25;;;24.07;34.65
41573;BME280;27286;47.870;19.006;2024-02-28T08:38:01;99491.97;;;21.09;39.19
41573;BME280;27286;47.870;19.006;2024-02-28T08:40:28;99483.47;;;21.26;40.07
41573;BME280;27286;47.870;19.006;2024-02-28T08:42:54;99485.50;;;21.02;39.55
41573;BME280;27286;47.870;19.006;2024-02-28T08:45:19;99486.03;;;21.89;39.73
41573;BME280;27286;47.870;19.006;2024-02-28T08:47:45;99483.44;;;22.77;38.01
41573;BME280;27286;47.870;19.006;2024-02-28T08:50:10;99477.47;;;25.06;32.85
41573;BME280;27286;47.870;19.006;2024-02-28T08:52:36;99486.09;;;26.04;32.05
41573;BME280;27286;47.870;19.006;2024-02-28T08:55:01;99485.28;;;25.52;32.88
41573;BME280;27286;47.870;19.006;2024-02-28T08:57:27;99483.69;;;25.93;31.76
41573;BME280;27286;47.870;19.006;2024-02-28T08:59:53;99489.44;;;26.06;31.23
41573;BME280;27286;47.870;19.006;2024-02-28T09:02:18;99490.16;;;23.01;35.43
41573;BME280;27286;47.870;19.006;2024-02-28T09:04:44;99494.50;;;21.31;39.35
41573;BME280;27286;47.870;19.006;2024-02-28T09:07:11;99502.97;;;20.72;40.52
41573;BME280;27286;47.870;19.006;2024-02-28T09:09:41;99482.53;;;21.16;39.38
41573;BME280;27286;47.870;19.006;2024-02-28T09:12:07;99487.59;;;21.40;39.38
41573;BME280;27286;47.870;19.006;2024-02-28T09:14:32;99481.69;;;21.16;40.09
41573;BME280;27286;47.870;19.006;2024-02-28T09:16:58;99485.66;;;21.00;39.79
41573;BME280;27286;47.870;19.006;2024-02-28T09:19:29;99476.25;;;20.76;41.03
41573;BME280;27286;47.870;19.006;2024-02-28T09:21:54;99484.00;;;20.88;39.51
41573;BME280;27286;47.870;19.006;2024-02-28T09:24:20;99482.28;;;21.61;38.82
41573;BME280;27286;47.870;19.006;2024-02-28T09:26:45;99488.16;;;21.44;38.60
41573;BME280;27286;47.870;19.006;2024-02-28T09:29:10;99488.81;;;22.18;37.99
41573;BME280;27286;47.870;19.006;2024-02-28T09:31:36;99488.00;;;23.53;36.34
41573;BME280;27286;47.870;19.006;2024-02-28T09:34:01;99483.16;;;24.94;34.77
41573;BME280;27286;47.870;19.006;2024-02-28T09:36:32;99481.47;;;25.28;32.92
41573;BME280;27286;47.870;19.006;2024-02-28T09:38:58;99489.09;;;26.67;31.25
41573;BME280;27286;47.870;19.006;2024-02-28T09:41:23;99488.47;;;27.55;30.71
41573;BME280;27286;47.870;19.006;2024-02-28T09:43:51;99492.16;;;27.30;30.21
41573;BME280;27286;47.870;19.006;2024-02-28T09:46:17;99490.44;;;25.27;31.51
41573;BME280;27286;47.870;19.006;2024-02-28T09:48:44;99487.03;;;25.87;31.67
41573;BME280;27286;47.870;19.006;2024-02-28T09:51:14;99479.94;;;26.70;31.35
41573;BME280;27286;47.870;19.006;2024-02-28T09:53:41;99467.47;;;26.28;29.03
41573;BME280;27286;47.870;19.006;2024-02-28T09:56:07;99493.03;;;27.22;29.89
41573;BME280;27286;47.870;19.006;2024-02-28T09:58:33;99496.63;;;27.70;28.80
41573;BME280;27286;47.870;19.006;2024-02-28T10:01:02;99490.59;;;27.68;28.96
41573;BME280;27286;47.870;19.006;2024-02-28T10:03:29;99489.94;;;25.75;30.04
41573;BME280;27286;47.870;19.006;2024-02-28T10:05:55;99497.84;;;23.23;34.57
41573;BME280;27286;47.870;19.006;2024-02-28T10:08:21;99486.28;;;22.86;34.24
41573;BME280;27286;47.870;19.006;2024-02-28T10:10:47;99503.69;;;24.66;33.53
41573;BME280;27286;47.870;19.006;2024-02-28T10:13:13;99501.84;;;26.31;30.75
41573;BME280;27286;47.870;19.006;2024-02-28T10:15:40;99511.22;;;28.06;29.36
41573;BME280;27286;47.870;19.006;2024-02-28T10:18:06;99509.53;;;27.09;30.65
41573;BME280;27286;47.870;19.006;2024-02-28T10:20:31;99503.09;;;28.62;27.37
41573;BME280;27286;47.870;19.006;2024-02-28T10:22:57;99506.09;;;26.50;30.02
41573;BME280;27286;47.870;19.006;2024-02-28T10:25:22;99510.94;;;24.55;30.59
41573;BME280;27286;47.870;19.006;2024-02-28T10:27:49;99511.66;;;23.36;33.14
41573;BME280;27286;47.870;19.006;2024-02-28T10:30:14;99510.66;;;22.79;35.92
41573;BME280;27286;47.870;19.006;2024-02-28T10:32:48;99508.78;;;22.32;35.53
41573;BME280;27286;47.870;19.006;2024-02-28T10:35:16;99512.00;;;21.95;36.77
41573;BME280;27286;47.870;19.006;2024-02-28T10:37:44;99516.59;;;22.24;36.43
41573;BME280;27286;47.870;19.006;2024-02-28T10:40:11;99508.63;;;22.24;36.95
41573;BME280;27286;47.870;19.006;2024-02-28T10:42:41;99503.84;;;24.64;34.51
41573;BME280;27286;47.870;19.006;2024-02-28T10:45:08;99508.47;;;24.44;33.98
41573;BME280;27286;47.870;19.006;2024-02-28T10:47:39;99512.63;;;22.68;36.65
41573;BME280;27286;47.870;19.006;2024-02-28T10:50:06;99518.69;;;22.20;37.24
41573;BME280;27286;47.870;19.006;2024-02-28T10:52:39;99511.28;;;22.33;36.99
41573;BME280;27286;47.870;19.006;2024-02-28T10:55:08;99515.19;;;21.99;38.11
41573;BME280;27286;47.870;19.006;2024-02-28T10:57:36;99518.41;;;21.41;39.07
41573;BME280;27286;47.870;19.006;2024-02-28T11:00:20;99512.53;;;20.85;39.87
41573;BME280;27286;47.870;19.006;2024-02-28T11:02:46;99522.16;;;20.09;41.76
41573;BME280;27286;47.870;19.006;2024-02-28T11:05:12;99513.03;;;21.31;40.00
41573;BME280;27286;47.870;19.006;2024-02-28T11:07:41;99511.38;;;22.12;37.70
41573;BME280;27286;47.870;19.006;2024-02-28T11:10:07;99511.63;;;21.79;39.16
41573;BME280;27286;47.870;19.006;2024-02-28T11:12:33;99508.34;;;22.86;37.06
41573;BME280;27286;47.870;19.006;2024-02-28T11:18:09;99508.00;;;23.94;35.51
41573;BME280;27286;47.870;19.006;2024-02-28T11:21:16;99516.16;;;23.83;33.18
41573;BME280;27286;47.870;19.006;2024-02-28T11:26:48;99510.31;;;24.97;33.77
41573;BME280;27286;47.870;19.006;2024-02-28T11:32:37;99505.00;;;27.34;29.25
41573;BME280;27286;47.870;19.006;2024-02-28T11:35:03;99502.22;;;28.38;27.78
41573;BME280;27286;47.870;19.006;2024-02-28T11:37:28;99503.69;;;28.49;27.12
41573;BME280;27286;47.870;19.006;2024-02-28T11:39:54;99492.66;;;29.35;26.80
41573;BME280;27286;47.870;19.006;2024-02-28T11:42:19;99493.69;;;30.38;25.30
41573;BME280;27286;47.870;19.006;2024-02-28T11:44:53;99492.31;;;29.53;26.01
41573;BME280;27286;47.870;19.006;2024-02-28T11:50:22;99497.88;;;30.40;25.42
41573;BME280;27286;47.870;19.006;2024-02-28T11:52:48;99483.09;;;30.51;25.51
41573;BME280;27286;47.870;19.006;2024-02-28T11:55:14;99482.06;;;31.72;23.56
41573;BME280;27286;47.870;19.006;2024-02-28T12:01:15;99475.75;;;31.02;24.14
41573;BME280;27286;47.870;19.006;2024-02-28T12:03:45;99479.09;;;29.14;25.30
41573;BME280;27286;47.870;19.006;2024-02-28T12:06:11;99479.31;;;29.65;26.12
41573;BME280;27286;47.870;19.006;2024-02-28T12:08:37;99474.63;;;30.33;23.77
41573;BME280;27286;47.870;19.006;2024-02-28T12:11:07;99475.66;;;28.60;26.53
41573;BME280;27286;47.870;19.006;2024-02-28T12:13:33;99480.91;;;28.14;27.15
41573;BME280;27286;47.870;19.006;2024-02-28T12:15:58;99480.91;;;27.58;28.92
41573;BME280;27286;47.870;19.006;2024-02-28T12:18:26;99473.66;;;29.60;26.37
41573;BME280;27286;47.870;19.006;2024-02-28T12:20:52;99473.91;;;28.05;27.23
41573;BME280;27286;47.870;19.006;2024-02-28T12:23:18;99480.91;;;28.14;27.56
41573;BME280;27286;47.870;19.006;2024-02-28T12:25:43;99474.34;;;29.39;25.17
41573;BME280;27286;47.870;19.006;2024-02-28T12:28:08;99478.69;;;28.57;25.67
41573;BME280;27286;47.870;19.006;2024-02-28T12:30:44;99471.75;;;27.45;27.38
41573;BME280;27286;47.870;19.006;2024-02-28T12:33:10;99469.91;;;26.64;29.54
41573;BME280;27286;47.870;19.006;2024-02-28T12:35:39;99464.56;;;26.64;28.99
41573;BME280;27286;47.870;19.006;2024-02-28T12:38:04;99465.03;;;26.01;29.23
41573;BME280;27286;47.870;19.006;2024-02-28T12:40:30;99461.53;;;25.66;30.62
41573;BME280;27286;47.870;19.006;2024-02-28T12:42:56;99470.03;;;24.01;33.74
41573;BME280;27286;47.870;19.006;2024-02-28T12:45:21;99436.09;;;22.83;35.33
41573;BME280;27286;47.870;19.006;2024-02-28T12:47:47;99462.28;;;23.44;34.55
41573;BME280;27286;47.870;19.006;2024-02-28T12:50:13;99461.09;;;22.51;35.54
41573;BME280;27286;47.870;19.006;2024-02-28T12:52:38;99471.13;;;22.67;35.41
41573;BME280;27286;47.870;19.006;2024-02-28T12:55:04;99460.13;;;22.71;35.23
41573;BME280;27286;47.870;19.006;2024-02-28T12:57:29;99461.47;;;22.17;37.41
41573;BME280;27286;47.870;19.006;2024-02-28T12:59:55;99461.94;;;22.02;37.41